Time;durP1;ratioP1;P1;durP2;ratioP2;P2;SDS_P1;SDS_P2;PMS_P1;PMS_P2;Temp;Humidity;BMP_temperature;BMP_pressure;BME280_temperature;BME280_humidity;BME280_pressure;Samples;Min_cycle;Max_cycle;Signal;HPM_P1;HPM_P2
2021/12/19 00:00:16;;;;;;;40.70;24.73;;;;;;;2.52;98.01;99831.31;5057628;28;20203;-69
2021/12/19 00:08:38;;;;;;;44.40;26.87;;;;;;;2.49;97.87;99815.78;5057292;28;20271;-69
2021/12/19 00:11:04;;;;;;;44.50;26.60;;;;;;;2.49;98.11;99820.22;5057332;28;20511;-69
2021/12/19 00:13:31;;;;;;;44.90;26.73;;;;;;;2.50;97.69;99812.25;5057098;28;20596;-69
2021/12/19 00:15:57;;;;;;;41.77;26.13;;;;;;;2.45;97.76;99808.31;5057280;28;20228;-69
2021/12/19 00:18:24;;;;;;;45.87;26.20;;;;;;;2.56;98.06;99808.25;5056976;28;20194;-69
2021/12/19 00:20:51;;;;;;;41.57;25.70;;;;;;;2.53;97.43;99805.91;5056371;28;20577;-69
2021/12/19 00:23:17;;;;;;;46.37;27.23;;;;;;;2.41;98.71;99817.41;5057017;28;20218;-69
2021/12/19 00:25:44;;;;;;;44.87;25.93;;;;;;;2.50;98.02;99806.13;5057065;28;20221;-69
2021/12/19 00:28:11;;;;;;;41.43;26.10;;;;;;;2.53;97.98;99796.22;5057174;28;20190;-69
2021/12/19 00:30:37;;;;;;;46.00;26.93;;;;;;;2.52;98.70;99799.00;5057159;28;20194;-69
2021/12/19 00:33:04;;;;;;;44.37;26.17;;;;;;;2.58;98.57;99785.34;5057022;28;20212;-69
2021/12/19 00:35:31;;;;;;;44.60;26.27;;;;;;;2.45;98.25;99779.44;5056981;28;20232;-72
2021/12/19 00:37:57;;;;;;;44.73;25.03;;;;;;;2.48;98.72;99768.69;5056896;28;20205;-72
2021/12/19 00:40:24;;;;;;;43.53;26.83;;;;;;;2.48;98.57;99777.38;5056896;28;20205;-72
2021/12/19 00:43:01;;;;;;;43.43;26.57;;;;;;;2.52;98.52;99778.00;5056573;28;20213;-73
2021/12/19 00:45:31;;;;;;;40.67;25.63;;;;;;;2.50;98.27;99764.97;5056770;28;20290;-72
2021/12/19 00:47:59;;;;;;;44.00;25.87;;;;;;;2.50;98.43;99767.59;5056543;28;20198;-72
2021/12/19 00:50:26;;;;;;;43.40;25.77;;;;;;;2.47;98.79;99756.50;5056800;28;20192;-72
2021/12/19 00:52:53;;;;;;;45.20;25.50;;;;;;;2.58;97.92;99753.84;5056780;28;20194;-72
2021/12/19 00:55:22;;;;;;;44.50;26.57;;;;;;;2.47;98.40;99767.00;5056624;28;20237;-72
2021/12/19 00:57:50;;;;;;;41.40;25.30;;;;;;;2.45;98.43;99761.06;5056716;28;20206;-72
2021/12/19 01:00:19;;;;;;;40.43;25.10;;;;;;;2.48;98.71;99755.56;5056695;28;20213;-72
2021/12/19 01:02:46;;;;;;;44.67;26.50;;;;;;;2.50;98.68;99753.63;5056562;28;20501;-72
2021/12/19 01:05:14;;;;;;;44.90;27.50;;;;;;;2.49;98.85;99749.34;5056267;28;20773;-72
2021/12/19 01:07:40;;;;;;;43.07;25.80;;;;;;;2.48;98.47;99740.63;5056275;28;20196;-72
2021/12/19 01:10:08;;;;;;;49.80;27.47;;;;;;;2.42;98.94;99750.81;5056520;28;20503;-72
2021/12/19 01:12:38;;;;;;;48.93;27.27;;;;;;;2.39;99.60;99757.16;5056114;28;20209;-72
2021/12/19 01:15:07;;;;;;;48.73;27.50;;;;;;;2.39;99.62;99754.53;5056356;28;20260;-72
2021/12/19 01:17:33;;;;;;;46.27;27.17;;;;;;;2.38;99.13;99758.09;5056450;28;20198;-73
2021/12/19 01:20:00;;;;;;;45.43;26.87;;;;;;;2.39;99.68;99749.28;5056458;28;20200;-73
2021/12/19 01:22:26;;;;;;;45.53;26.57;;;;;;;2.38;100.00;99758.09;5056384;28;20186;-73
2021/12/19 01:24:53;;;;;;;44.57;26.17;;;;;;;2.40;99.73;99737.81;5056243;28;20234;-73
2021/12/19 01:27:19;;;;;;;48.07;27.13;;;;;;;2.40;99.99;99748.31;5056300;28;20200;-73
2021/12/19 01:29:45;;;;;;;47.70;27.63;;;;;;;2.38;99.47;99754.63;5056034;28;20185;-73
2021/12/19 01:32:12;;;;;;;48.67;27.30;;;;;;;2.41;99.65;99747.38;5059766;28;20469;-73
2021/12/19 01:34:38;;;;;;;44.77;26.13;;;;;;;2.45;99.71;99751.41;5060392;28;20217;-74
2021/12/19 01:37:04;;;;;;;41.83;25.00;;;;;;;2.35;99.09;99747.03;5060414;28;20186;-73
2021/12/19 01:39:31;;;;;;;42.50;25.10;;;;;;;2.31;100.00;99748.25;5060388;28;20193;-73
2021/12/19 01:41:58;;;;;;;45.13;26.47;;;;;;;2.31;100.00;99756.13;5059950;28;20186;-73
2021/12/19 01:44:26;;;;;;;44.40;24.73;;;;;;;2.29;100.00;99761.50;5060468;28;20240;-73
2021/12/19 01:46:54;;;;;;;38.67;24.73;;;;;;;2.37;100.00;99761.69;5060270;28;20201;-73
2021/12/19 01:49:22;;;;;;;41.83;25.70;;;;;;;2.34;99.79;99761.13;5059937;28;20189;-73
2021/12/19 01:51:49;;;;;;;40.90;24.57;;;;;;;2.30;99.93;99759.72;5059969;28;20193;-73
2021/12/19 01:54:16;;;;;;;41.17;24.00;;;;;;;2.24;100.00;99765.44;5059945;28;20192;-73
2021/12/19 01:56:43;;;;;;;39.73;23.23;;;;;;;2.26;100.00;99760.91;5060067;28;20197;-73
2021/12/19 01:59:10;;;;;;;40.27;23.93;;;;;;;2.31;99.93;99753.50;5059694;28;20599;-73
2021/12/19 02:01:45;;;;;;;41.67;24.17;;;;;;;2.35;100.00;99754.91;5060455;28;20201;-73
2021/12/19 02:04:14;;;;;;;44.53;24.00;;;;;;;2.26;100.00;99748.59;5059757;28;20216;-73
2021/12/19 02:06:40;;;;;;;40.97;23.60;;;;;;;2.22;100.00;99751.63;5059380;28;20193;-73
2021/12/19 02:09:07;;;;;;;43.10;24.90;;;;;;;2.29;100.00;99755.41;5059666;28;20498;-73
2021/12/19 02:11:35;;;;;;;44.43;24.27;;;;;;;2.29;100.00;99755.41;5059215;28;20213;-73
2021/12/19 02:14:04;;;;;;;46.47;25.57;;;;;;;2.25;100.00;99751.38;5059263;28;20192;-73
2021/12/19 02:16:31;;;;;;;41.63;23.47;;;;;;;2.28;100.00;99746.72;5059673;28;20193;-73
2021/12/19 02:18:58;;;;;;;45.13;26.53;;;;;;;2.26;100.00;99753.03;5059600;28;20193;-74
2021/12/19 02:21:25;;;;;;;45.17;25.47;;;;;;;2.29;100.00;99752.78;5059554;28;20197;-73
2021/12/19 02:23:52;;;;;;;42.30;24.53;;;;;;;2.34;100.00;99748.00;5059971;28;20217;-73
2021/12/19 02:26:18;;;;;;;43.37;24.07;;;;;;;2.38;100.00;99731.03;5059396;28;20228;-74
2021/12/19 02:28:45;;;;;;;42.77;25.43;;;;;;;2.36;100.00;99725.09;5059106;28;20593;-73
2021/12/19 02:31:11;;;;;;;42.97;24.67;;;;;;;2.42;100.00;99714.06;5059372;28;20193;-73
2021/12/19 02:33:42;;;;;;;46.27;26.63;;;;;;;2.31;100.00;99714.13;5059357;28;20220;-73
2021/12/19 02:36:22;;;;;;;49.37;26.13;;;;;;;2.18;100.00;99716.09;5059152;28;20232;-73
2021/12/19 02:39:20;;;;;;;44.23;25.13;;;;;;;2.15;100.00;99721.59;5059201;28;20239;-73
2021/12/19 02:50:14;;;;;;;45.93;23.73;;;;;;;2.25;100.00;99712.03;5058819;28;20177;-73
2021/12/19 02:52:41;;;;;;;46.67;25.37;;;;;;;2.32;100.00;99718.41;5058977;28;20189;-73
2021/12/19 02:55:08;;;;;;;41.40;23.50;;;;;;;2.28;100.00;99709.13;5058460;28;20648;-73
2021/12/19 02:57:36;;;;;;;47.80;25.13;;;;;;;2.32;100.00;99708.75;5058870;28;20190;-73
2021/12/19 03:00:09;;;;;;;47.33;24.77;;;;;;;2.32;100.00;99711.38;5058806;28;20280;-73
2021/12/19 03:02:35;;;;;;;42.90;23.50;;;;;;;2.22;100.00;99712.28;5058766;28;20204;-73
2021/12/19 03:05:02;;;;;;;48.97;24.33;;;;;;;2.23;100.00;99709.53;5058612;28;20225;-73
2021/12/19 03:07:30;;;;;;;48.37;25.73;;;;;;;2.27;100.00;99705.69;5059145;28;20200;-73
2021/12/19 03:10:13;;;;;;;46.43;23.93;;;;;;;2.17;100.00;99703.94;5058394;28;20589;-73
2021/12/19 03:12:55;;;;;;;50.43;24.30;;;;;;;2.18;100.00;99700.34;5058630;28;20291;-73
2021/12/19 03:18:10;;;;;;;45.03;24.07;;;;;;;2.16;100.00;99689.16;5058292;28;20630;-73
2021/12/19 03:20:39;;;;;;;45.87;23.60;;;;;;;2.25;100.00;99683.16;5058466;28;20190;-73
2021/12/19 03:23:07;;;;;;;45.67;24.00;;;;;;;2.24;100.00;99684.94;5058357;28;20190;-73
2021/12/19 03:25:35;;;;;;;43.63;23.40;;;;;;;2.25;100.00;99691.03;5058020;28;20229;-73
2021/12/19 03:28:04;;;;;;;43.27;22.67;;;;;;;2.28;100.00;99688.13;5058347;28;20198;-73
2021/12/19 03:30:31;;;;;;;44.83;23.70;;;;;;;2.26;100.00;99685.63;5058327;28;20189;-73
2021/12/19 03:32:58;;;;;;;43.87;23.17;;;;;;;2.16;100.00;99683.91;5058266;28;20276;-73
2021/12/19 03:35:25;;;;;;;40.83;21.97;;;;;;;2.20;100.00;99680.06;5057830;28;20218;-73
2021/12/19 03:37:53;;;;;;;43.77;22.67;;;;;;;2.24;100.00;99678.84;5058131;28;20189;-73
2021/12/19 03:40:23;;;;;;;40.83;21.77;;;;;;;2.27;100.00;99673.34;5057739;28;20197;-73
2021/12/19 03:42:52;;;;;;;45.00;23.10;;;;;;;2.18;100.00;99674.97;5057997;28;20192;-73
2021/12/19 03:45:21;;;;;;;45.70;23.27;;;;;;;2.27;100.00;99673.34;5057477;28;20221;-73
2021/12/19 03:47:49;;;;;;;40.43;21.47;;;;;;;2.35;100.00;99666.50;5057635;28;20589;-73
2021/12/19 03:50:21;;;;;;;37.73;21.33;;;;;;;2.28;100.00;99652.25;5057867;28;20189;-73
2021/12/19 03:52:48;;;;;;;37.90;20.03;;;;;;;2.21;100.00;99668.63;5057512;28;20200;-73
2021/12/19 03:55:14;;;;;;;39.50;20.50;;;;;;;2.18;100.00;99667.09;5056844;28;20236;-73
2021/12/19 03:57:41;;;;;;;38.57;19.17;;;;;;;2.13;100.00;99669.28;5057738;28;20284;-72
2021/12/19 04:00:14;;;;;;;41.53;20.77;;;;;;;2.03;100.00;99670.16;5057609;28;20193;-71
2021/12/19 04:02:40;;;;;;;38.23;19.60;;;;;;;2.19;100.00;99657.41;5057580;28;20201;-72
2021/12/19 04:05:07;;;;;;;40.33;20.77;;;;;;;2.26;100.00;99655.97;5057387;28;20225;-72
2021/12/19 04:07:34;;;;;;;40.53;21.07;;;;;;;2.20;100.00;99653.81;5057464;28;20205;-72
2021/12/19 04:10:01;;;;;;;48.83;21.07;;;;;;;2.13;100.00;99657.94;5057430;28;20194;-72
2021/12/19 04:12:29;;;;;;;42.27;21.57;;;;;;;2.19;100.00;99644.28;5057009;28;20205;-71
2021/12/19 04:14:56;;;;;;;45.87;22.83;;;;;;;2.18;100.00;99646.09;5057528;28;20221;-71
2021/12/19 04:17:22;;;;;;;43.97;22.10;;;;;;;2.15;100.00;99642.88;5057332;28;20193;-73
2021/12/19 04:19:49;;;;;;;42.70;21.17;;;;;;;2.13;100.00;99640.41;5057284;28;20196;-72
2021/12/19 04:22:15;;;;;;;43.10;21.30;;;;;;;2.11;100.00;99633.59;5057212;28;20218;-72
2021/12/19 04:24:41;;;;;;;41.87;21.43;;;;;;;2.14;100.00;99626.31;5057129;28;20229;-72
2021/12/19 04:27:08;;;;;;;39.47;21.37;;;;;;;2.12;100.00;99622.16;5057202;28;20186;-72
2021/12/19 04:29:34;;;;;;;41.60;20.80;;;;;;;2.20;100.00;99617.09;5057182;28;20189;-73
2021/12/19 04:32:01;;;;;;;41.33;20.77;;;;;;;2.20;100.00;99610.06;5057086;28;20212;-72
2021/12/19 04:34:27;;;;;;;41.37;19.93;;;;;;;2.05;100.00;99607.88;5057352;28;20223;-71
2021/12/19 04:36:59;;;;;;;45.53;21.77;;;;;;;2.10;100.00;99610.94;5056948;28;20200;-72
2021/12/19 04:39:37;;;;;;;40.17;20.63;;;;;;;2.11;100.00;99608.22;5056767;28;20212;-73
2021/12/19 04:53:22;;;;;;;38.53;18.43;;;;;;;2.11;100.00;99615.22;5056453;28;20595;-72
2021/12/19 04:56:20;;;;;;;33.50;17.27;;;;;;;2.09;100.00;99632.91;5056602;28;20225;-72
2021/12/19 05:15:23;;;;;;;28.97;15.63;;;;;;;2.07;100.00;99619.09;5056245;28;20239;-72
2021/12/19 05:17:49;;;;;;;31.80;15.57;;;;;;;2.10;100.00;99624.91;5056454;28;20569;-69
2021/12/19 05:20:20;;;;;;;32.23;16.10;;;;;;;2.19;100.00;99629.41;5056410;28;20466;-69
2021/12/19 05:22:49;;;;;;;24.30;14.10;;;;;;;2.09;100.00;99625.88;5057103;28;20280;-73
2021/12/19 05:25:17;;;;;;;25.03;13.53;;;;;;;2.07;100.00;99624.34;5056263;28;20251;-73
2021/12/19 05:27:46;;;;;;;24.43;14.77;;;;;;;2.05;100.00;99619.22;5056395;28;20193;-73
2021/12/19 05:30:14;;;;;;;22.60;12.90;;;;;;;2.03;100.00;99620.31;5056371;28;20190;-73
2021/12/19 05:32:46;;;;;;;24.37;13.93;;;;;;;2.05;100.00;99615.75;5056027;28;20192;-73
2021/12/19 05:35:17;;;;;;;23.70;13.07;;;;;;;1.95;100.00;99620.94;5056207;28;20279;-73
2021/12/19 05:45:55;;;;;;;20.10;11.93;;;;;;;1.95;100.00;99620.94;5055861;28;20523;-73
2021/12/19 05:48:21;;;;;;;23.50;12.47;;;;;;;1.93;100.00;99609.75;5055334;28;20613;-73
2021/12/19 05:50:48;;;;;;;21.80;12.70;;;;;;;2.00;100.00;99602.19;5055727;28;20573;-74
2021/12/19 05:53:15;;;;;;;22.53;12.57;;;;;;;1.98;100.00;99609.38;5056062;28;20198;-73
2021/12/19 05:55:42;;;;;;;21.63;12.37;;;;;;;1.94;100.00;99618.44;5056052;28;20303;-73
2021/12/19 05:58:08;;;;;;;22.60;13.10;;;;;;;1.95;100.00;99612.25;5055696;28;20589;-73
2021/12/19 06:00:35;;;;;;;22.80;13.37;;;;;;;1.91;100.00;99603.81;5056029;28;20193;-73
2021/12/19 06:03:03;;;;;;;21.20;12.23;;;;;;;1.90;100.00;99612.59;5056012;28;20236;-73
2021/12/19 06:05:30;;;;;;;21.20;12.20;;;;;;;1.91;100.00;99603.81;5055816;28;20229;-73
2021/12/19 06:07:56;;;;;;;20.20;11.30;;;;;;;1.87;100.00;99604.16;5055908;28;20193;-73
2021/12/19 06:10:25;;;;;;;22.17;13.20;;;;;;;1.91;100.00;99592.47;5056071;28;20212;-73
2021/12/19 06:12:51;;;;;;;19.70;12.03;;;;;;;1.85;100.00;99585.13;5055867;28;20189;-73
2021/12/19 06:15:18;;;;;;;23.17;12.47;;;;;;;1.87;100.00;99585.81;5055531;28;20667;-73
2021/12/19 06:17:45;;;;;;;19.07;11.53;;;;;;;1.88;100.00;99582.22;5057007;28;20200;-73
2021/12/19 06:20:12;;;;;;;21.43;11.93;;;;;;;1.72;100.00;99580.03;5059300;28;20315;-73
2021/12/19 06:22:40;;;;;;;19.30;11.30;;;;;;;1.74;100.00;99585.16;5059534;28;20502;-73
2021/12/19 06:25:07;;;;;;;17.37;10.10;;;;;;;1.81;100.00;99594.19;5059114;28;20628;-73
2021/12/19 06:27:33;;;;;;;19.53;11.00;;;;;;;1.71;100.00;99580.19;5059198;28;20596;-73
2021/12/19 06:30:00;;;;;;;18.20;10.93;;;;;;;1.76;100.00;99567.53;5059418;28;20201;-73
2021/12/19 06:32:26;;;;;;;16.47;10.43;;;;;;;1.73;100.00;99567.78;5059121;28;20612;-73
2021/12/19 06:34:52;;;;;;;18.80;11.23;;;;;;;1.80;100.00;99558.47;5059308;28;20225;-73
2021/12/19 06:37:19;;;;;;;18.07;10.13;;;;;;;1.68;100.00;99562.94;5059231;28;20194;-73
2021/12/19 06:39:46;;;;;;;17.80;10.13;;;;;;;1.72;100.00;99566.13;5059230;28;20204;-73
2021/12/19 06:42:13;;;;;;;16.63;10.37;;;;;;;1.76;100.00;99567.53;5059104;28;20206;-73
2021/12/19 06:44:39;;;;;;;20.30;10.57;;;;;;;1.72;100.00;99558.25;5058989;28;20292;-74
2021/12/19 06:47:06;;;;;;;18.70;11.27;;;;;;;1.74;100.00;99553.69;5059108;28;20194;-73
2021/12/19 06:49:32;;;;;;;19.00;11.20;;;;;;;1.69;100.00;99548.00;5059048;28;20197;-73
2021/12/19 06:51:59;;;;;;;20.63;11.40;;;;;;;1.68;100.00;99562.94;5058863;28;20197;-73
2021/12/19 06:54:25;;;;;;;16.80;11.07;;;;;;;1.62;100.00;99565.22;5058901;28;20228;-73
2021/12/19 06:56:51;;;;;;;22.50;12.60;;;;;;;1.65;100.00;99562.31;5058962;28;20197;-73
2021/12/19 06:59:18;;;;;;;19.97;12.07;;;;;;;1.79;100.00;99567.25;5058847;28;20197;-73
2021/12/19 07:01:44;;;;;;;18.10;11.17;;;;;;;1.72;100.00;99571.34;5058819;28;20228;-73
2021/12/19 07:04:10;;;;;;;18.60;11.03;;;;;;;1.72;100.00;99569.56;5058601;28;20203;-73
2021/12/19 07:06:37;;;;;;;24.20;12.30;;;;;;;1.62;100.00;99571.28;5058705;28;20201;-73
2021/12/19 07:09:03;;;;;;;19.13;11.30;;;;;;;1.71;100.00;99559.22;5059212;28;20185;-73
2021/12/19 07:11:30;;;;;;;20.83;12.40;;;;;;;1.73;100.00;99557.28;5058355;28;20223;-73
2021/12/19 07:13:56;;;;;;;17.87;10.97;;;;;;;1.64;100.00;99576.41;5058234;28;20205;-73
2021/12/19 07:16:23;;;;;;;22.20;11.10;;;;;;;1.68;100.00;99581.28;5058521;28;20221;-73
2021/12/19 07:18:49;;;;;;;17.80;11.47;;;;;;;1.74;100.00;99578.13;5058529;28;20190;-73
2021/12/19 07:21:15;;;;;;;19.80;11.73;;;;;;;1.68;100.00;99581.28;5058508;28;20209;-73
2021/12/19 07:23:42;;;;;;;19.17;11.77;;;;;;;1.73;100.00;99555.50;5058470;28;20190;-69
2021/12/19 07:26:08;;;;;;;18.03;10.57;;;;;;;1.76;100.00;99564.91;5058225;28;20229;-69
2021/12/19 07:28:35;;;;;;;19.53;10.90;;;;;;;1.73;100.00;99563.38;5058055;28;20209;-69
2021/12/19 07:31:01;;;;;;;17.87;10.33;;;;;;;1.71;100.00;99551.34;5058260;28;20201;-69
2021/12/19 07:33:27;;;;;;;18.07;10.43;;;;;;;1.78;100.00;99557.72;5058271;28;20491;-69
2021/12/19 07:35:55;;;;;;;16.60;10.37;;;;;;;1.67;100.00;99558.63;5058099;28;20232;-69
2021/12/19 07:38:29;;;;;;;14.67;9.40;;;;;;;1.72;100.00;99558.25;5058099;28;20211;-69
2021/12/19 07:40:57;;;;;;;13.93;8.43;;;;;;;1.74;100.00;99562.41;5057640;28;20189;-69
2021/12/19 07:43:24;;;;;;;14.87;9.37;;;;;;;1.70;100.00;99570.63;5057855;28;20284;-69
2021/12/19 07:45:50;;;;;;;15.27;9.47;;;;;;;1.78;100.00;99573.47;5057781;28;20229;-69
2021/12/19 07:48:16;;;;;;;15.17;8.87;;;;;;;1.77;100.00;99569.19;5057855;28;20193;-73
2021/12/19 07:50:43;;;;;;;13.47;8.40;;;;;;;1.80;100.00;99566.31;5057933;28;20190;-73
2021/12/19 07:53:09;;;;;;;14.10;8.20;;;;;;;1.73;100.00;99570.41;5057572;28;20190;-73
2021/12/19 07:55:36;;;;;;;13.67;8.27;;;;;;;1.78;100.00;99566.44;5057774;28;20655;-72
2021/12/19 07:58:02;;;;;;;11.30;7.87;;;;;;;1.64;100.00;99558.88;5057588;28;20239;-73
2021/12/19 08:00:28;;;;;;;11.13;7.70;;;;;;;1.68;100.00;99556.84;5057346;28;20205;-74
2021/12/19 08:02:55;;;;;;;14.00;7.53;;;;;;;1.71;100.00;99559.22;5057273;28;20586;-73
2021/12/19 08:05:22;;;;;;;12.53;8.00;;;;;;;1.76;100.00;99557.84;5057393;28;20234;-71
2021/12/19 08:07:55;;;;;;;14.77;7.60;;;;;;;1.83;100.00;99559.03;5057465;28;20193;-71
2021/12/19 08:13:07;;;;;;;12.40;7.33;;;;;;;1.81;100.00;99544.38;5057431;28;20253;-71
2021/12/19 08:15:35;;;;;;;11.83;7.60;;;;;;;1.70;100.00;99533.94;5057177;28;20217;-71
2021/12/19 08:18:02;;;;;;;10.83;7.20;;;;;;;1.71;100.00;99539.06;5057282;28;20197;-71
2021/12/19 08:20:28;;;;;;;13.77;7.50;;;;;;;1.84;100.00;99537.06;5056825;28;20595;-71
2021/12/19 08:22:55;;;;;;;12.17;7.83;;;;;;;1.92;100.00;99536.44;5057115;28;20193;-70
2021/12/19 08:25:23;;;;;;;10.53;7.00;;;;;;;1.95;100.00;99525.69;5056901;28;20234;-71
2021/12/19 08:27:50;;;;;;;10.13;6.60;;;;;;;1.92;100.00;99546.91;5057017;28;20477;-71
2021/12/19 08:30:17;;;;;;;11.40;6.37;;;;;;;1.85;100.00;99543.16;5056776;28;20190;-71
2021/12/19 08:32:43;;;;;;;10.57;6.77;;;;;;;1.96;100.00;99545.72;5057081;28;20186;-71
2021/12/19 08:35:13;;;;;;;11.30;6.93;;;;;;;1.96;100.00;99541.31;5056851;28;20228;-71
2021/12/19 08:37:39;;;;;;;9.60;5.83;;;;;;;2.03;100.00;99542.44;5056865;28;20197;-71
2021/12/19 08:40:10;;;;;;;10.37;6.17;;;;;;;2.05;100.00;99531.81;5056231;28;20190;-71
2021/12/19 08:42:36;;;;;;;9.57;6.17;;;;;;;2.10;100.00;99534.88;5056750;28;20208;-71
2021/12/19 08:45:03;;;;;;;9.30;5.90;;;;;;;2.11;100.00;99523.41;5056226;28;20628;-71
2021/12/19 08:47:30;;;;;;;8.00;5.43;;;;;;;2.10;100.00;99519.13;5056716;28;20196;-71
2021/12/19 08:49:56;;;;;;;10.37;5.40;;;;;;;2.06;100.00;99518.59;5057286;28;20197;-71
2021/12/19 08:52:23;;;;;;;9.80;6.07;;;;;;;2.10;100.00;99521.75;5056493;28;20205;-71
2021/12/19 08:54:49;;;;;;;6.57;4.57;;;;;;;2.17;100.00;99518.47;5056616;28;20223;-71
2021/12/19 08:57:15;;;;;;;7.40;5.10;;;;;;;2.24;100.00;99518.78;5056645;28;20224;-71
2021/12/19 08:59:43;;;;;;;7.20;4.93;;;;;;;2.28;100.00;99520.19;5056686;28;20189;-71
2021/12/19 09:02:10;;;;;;;7.63;5.13;;;;;;;2.15;100.00;99523.03;5056277;28;20232;-71
2021/12/19 09:04:36;;;;;;;8.80;5.30;;;;;;;2.11;100.00;99515.56;5056415;28;20228;-71
2021/12/19 09:07:03;;;;;;;8.27;5.17;;;;;;;2.18;100.00;99517.53;5056562;28;20189;-71
2021/12/19 09:09:29;;;;;;;6.77;4.60;;;;;;;2.17;100.00;99507.19;5056520;28;20205;-72
2021/12/19 09:11:56;;;;;;;7.17;5.20;;;;;;;2.26;100.00;99516.88;5056197;28;20213;-71
2021/12/19 09:14:22;;;;;;;7.73;4.93;;;;;;;2.35;100.00;99518.72;5056467;28;20236;-71
2021/12/19 09:16:49;;;;;;;5.70;4.20;;;;;;;2.35;99.35;99516.91;5056472;28;20189;-71
2021/12/19 09:19:16;;;;;;;6.77;4.50;;;;;;;2.45;99.72;99520.44;5056409;28;20544;-71
2021/12/19 09:21:42;;;;;;;6.03;4.13;;;;;;;2.41;99.75;99523.44;5056295;28;20193;-71
2021/12/19 09:24:09;;;;;;;5.47;3.90;;;;;;;2.41;99.73;99528.69;5055720;28;20197;-71
2021/12/19 09:26:36;;;;;;;4.73;4.00;;;;;;;2.35;99.82;99523.97;5056154;28;20243;-71
2021/12/19 09:29:02;;;;;;;6.13;4.30;;;;;;;2.44;99.21;99517.94;5056294;28;20200;-71
2021/12/19 09:31:29;;;;;;;3.77;3.20;;;;;;;2.50;99.43;99526.09;5056353;28;20190;-68
2021/12/19 09:33:56;;;;;;;3.53;3.00;;;;;;;2.42;98.66;99514.59;5056233;28;20189;-68
2021/12/19 09:36:22;;;;;;;3.23;2.70;;;;;;;2.48;98.50;99516.72;5055875;28;20221;-69
2021/12/19 09:38:49;;;;;;;3.53;2.73;;;;;;;2.52;97.56;99504.97;5055888;28;20197;-68
2021/12/19 09:41:27;;;;;;;2.57;2.23;;;;;;;2.50;96.99;99501.63;5055890;28;20243;-68
2021/12/19 09:43:54;;;;;;;3.17;2.80;;;;;;;2.57;97.34;99502.78;5056112;28;20200;-68
2021/12/19 09:46:21;;;;;;;3.23;2.60;;;;;;;2.48;98.15;99508.84;5055611;28;20625;-68
2021/12/19 09:48:50;;;;;;;4.40;3.33;;;;;;;2.56;97.94;99501.09;5056062;28;20193;-68
2021/12/19 09:51:19;;;;;;;3.43;2.87;;;;;;;2.59;97.34;99492.97;5056459;28;20200;-68
2021/12/19 09:53:46;;;;;;;3.70;3.13;;;;;;;2.54;97.42;99482.88;5059685;28;20189;-68
2021/12/19 09:56:13;;;;;;;3.23;2.80;;;;;;;2.71;96.43;99484.84;5059567;28;20213;-68
2021/12/19 09:58:41;;;;;;;3.00;2.70;;;;;;;2.58;96.95;99476.38;5059939;28;20201;-68
2021/12/19 10:01:10;;;;;;;3.43;3.10;;;;;;;2.69;97.59;99472.81;5059592;28;20581;-68
2021/12/19 10:03:37;;;;;;;4.00;3.10;;;;;;;2.79;97.30;99476.28;5059858;28;20492;-69
2021/12/19 10:06:24;;;;;;;3.63;2.87;;;;;;;2.74;97.05;99473.22;5059204;28;20225;-68
2021/12/19 10:09:17;;;;;;;3.70;2.90;;;;;;;2.79;97.37;99473.66;5059747;28;20198;-68
2021/12/19 10:11:57;;;;;;;4.63;2.70;;;;;;;2.80;97.48;99470.88;5059421;28;20259;-69
2021/12/19 10:14:30;;;;;;;3.33;2.60;;;;;;;2.69;97.53;99467.56;5059298;28;20668;-68
2021/12/19 10:17:03;;;;;;;3.60;2.90;;;;;;;2.70;97.53;99472.69;5059687;28;20186;-68
2021/12/19 10:20:02;;;;;;;3.33;3.03;;;;;;;2.75;96.99;99459.97;5059585;28;20239;-71
2021/12/19 10:22:36;;;;;;;2.67;2.20;;;;;;;2.76;96.14;99458.19;5058872;28;20233;-71
2021/12/19 10:25:27;;;;;;;2.63;2.40;;;;;;;2.70;97.16;99453.44;5058735;28;20223;-71
2021/12/19 10:27:56;;;;;;;2.97;2.27;;;;;;;2.69;96.62;99450.00;5059886;28;20232;-71
2021/12/19 10:30:38;;;;;;;2.60;2.40;;;;;;;2.79;97.39;99450.00;5059426;28;20201;-71
2021/12/19 10:33:07;;;;;;;2.53;2.13;;;;;;;2.84;96.81;99435.50;5059047;28;20500;-71
2021/12/19 10:35:39;;;;;;;2.67;2.47;;;;;;;2.79;96.93;99442.13;5059225;28;20221;-71
2021/12/19 10:38:08;;;;;;;2.80;2.20;;;;;;;2.78;96.05;99437.84;5058882;28;20569;-71
2021/12/19 10:40:34;;;;;;;2.30;2.10;;;;;;;2.75;95.62;99427.66;5058930;28;20186;-71
2021/12/19 10:43:04;;;;;;;2.73;2.43;;;;;;;2.72;96.04;99428.75;5058657;28;20577;-71
2021/12/19 10:45:34;;;;;;;2.73;2.33;;;;;;;2.76;95.55;99424.84;5058911;28;20311;-70
2021/12/19 10:48:14;;;;;;;2.57;2.37;;;;;;;2.77;95.72;99423.06;5058954;28;20200;-71
2021/12/19 10:50:48;;;;;;;2.40;2.20;;;;;;;2.75;96.35;99414.50;5058642;28;20190;-72
2021/12/19 10:53:16;;;;;;;2.67;2.47;;;;;;;2.79;96.59;99413.25;5058854;28;20192;-72
2021/12/19 10:55:48;;;;;;;2.80;2.57;;;;;;;2.72;96.73;99405.13;5058808;28;20218;-72
2021/12/19 10:58:22;;;;;;;3.53;2.70;;;;;;;2.73;96.50;99398.91;5058607;28;20625;-73
2021/12/19 11:01:03;;;;;;;3.17;2.63;;;;;;;2.79;95.63;99390.47;5059629;28;20466;-73
2021/12/19 11:03:39;;;;;;;3.13;2.77;;;;;;;2.88;95.24;99394.88;5057991;28;20272;-72
2021/12/19 11:06:21;;;;;;;2.93;2.60;;;;;;;2.89;94.90;99386.03;5058479;28;20616;-72
2021/12/19 11:08:47;;;;;;;3.17;2.40;;;;;;;2.75;94.37;99378.56;5058098;28;20285;-72
2021/12/19 11:11:30;;;;;;;2.37;2.17;;;;;;;2.78;94.45;99372.22;5058313;28;20209;-73
2021/12/19 11:13:57;;;;;;;3.20;2.80;;;;;;;2.85;94.05;99362.81;5058261;28;20581;-72
2021/12/19 11:16:24;;;;;;;3.87;2.77;;;;;;;2.88;95.29;99370.41;5058442;28;20213;-72
2021/12/19 11:18:50;;;;;;;4.60;2.47;;;;;;;2.79;94.42;99371.22;5058442;28;20193;-72
2021/12/19 11:21:18;;;;;;;4.90;2.93;;;;;;;2.75;93.42;99365.44;5058157;28;20597;-72
2021/12/19 11:23:44;;;;;;;3.03;2.70;;;;;;;2.74;94.60;99362.94;5058241;28;20194;-72
2021/12/19 11:26:11;;;;;;;2.60;2.40;;;;;;;2.91;94.12;99362.25;5058143;28;20228;-73
2021/12/19 11:28:38;;;;;;;2.90;2.33;;;;;;;2.62;94.75;99351.75;5057896;28;20498;-73
2021/12/19 11:31:05;;;;;;;3.73;3.07;;;;;;;2.81;95.02;99350.94;5058295;28;20196;-73
2021/12/19 11:33:38;;;;;;;3.13;2.70;;;;;;;2.80;94.62;99347.47;5057806;28;20211;-72
2021/12/19 11:36:06;;;;;;;3.10;2.80;;;;;;;2.86;94.93;99343.47;5057753;28;20221;-72
2021/12/19 11:38:33;;;;;;;3.30;3.00;;;;;;;2.76;94.81;99340.03;5057892;28;20189;-72
2021/12/19 11:41:10;;;;;;;4.20;3.33;;;;;;;2.73;94.54;99328.00;5057624;28;20294;-73
2021/12/19 11:43:38;;;;;;;4.93;3.43;;;;;;;2.74;95.09;99327.03;5057732;28;20217;-73
2021/12/19 11:46:12;;;;;;;5.13;3.07;;;;;;;2.73;95.50;99324.53;5057608;28;20287;-73
2021/12/19 11:48:39;;;;;;;3.93;3.40;;;;;;;2.85;94.51;99318.16;5058166;28;20274;-72
2021/12/19 11:51:08;;;;;;;3.97;3.20;;;;;;;2.80;94.41;99315.94;5057419;28;20235;-69
2021/12/19 11:53:43;;;;;;;4.43;3.63;;;;;;;2.86;94.52;99314.56;5057480;28;20194;-68
2021/12/19 11:56:12;;;;;;;4.20;3.27;;;;;;;2.81;94.43;99311.53;5057645;28;20221;-68
2021/12/19 11:58:49;;;;;;;3.37;3.07;;;;;;;2.69;92.61;99302.97;5057679;28;20193;-68
2021/12/19 12:01:28;;;;;;;3.90;3.30;;;;;;;2.83;93.92;99299.09;5057569;28;20189;-69
2021/12/19 12:04:11;;;;;;;5.70;3.50;;;;;;;2.81;94.87;99291.38;5057357;28;20193;-71
2021/12/19 12:06:40;;;;;;;3.93;3.40;;;;;;;2.89;94.11;99290.66;5057217;28;20209;-71
2021/12/19 12:09:28;;;;;;;4.33;3.13;;;;;;;2.91;95.28;99279.03;5057055;28;20189;-71
2021/12/19 12:12:01;;;;;;;4.30;3.87;;;;;;;3.00;94.54;99278.19;5057034;28;20259;-71
2021/12/19 12:14:35;;;;;;;4.70;3.70;;;;;;;3.04;95.12;99276.94;5056674;28;20648;-71
2021/12/19 12:17:08;;;;;;;3.97;3.50;;;;;;;3.06;93.26;99279.41;5056776;28;20185;-71
2021/12/19 12:19:48;;;;;;;4.57;3.70;;;;;;;2.92;93.47;99271.97;5057899;28;20289;-72
2021/12/19 12:22:23;;;;;;;4.57;3.67;;;;;;;2.93;93.87;99263.16;5057029;28;20327;-72
2021/12/19 12:25:08;;;;;;;4.00;3.57;;;;;;;2.91;93.65;99250.16;5056942;28;20220;-71
2021/12/19 12:27:40;;;;;;;4.43;4.00;;;;;;;2.67;93.83;99252.38;5056636;28;20616;-71
2021/12/19 12:30:13;;;;;;;4.23;3.60;;;;;;;2.79;93.93;99247.81;5057078;28;20200;-71